Aérodrome :
LOGIN :

S'inscrire | Disclaimer

   EN    FR    IT 

 










Légende :    VFR   VFR Marginal   IFR   IFR Intensif   IFR Très Intensif
Visi : 
Plafond : 
>= 8 km
>= 3000ft
5 à 8 km
1000 à 3000 ft
1500m à 5 km
500 à 1000 ft
800 à 1500m
200 à 500 ft
< 800m
< 200 ft
Symboles :   Orages  Brouillard  Fortes neiges  Fortes précipitations  Vent > 20 kt
SIGMETs :   Divers  Orages  Givrage  Turbulence  Onde Orograph.  Cendres Volcan.






- Altitude de l'aérodrome : 194 ft


EBCV - Chièvres

DERNIER METAR :
  • 181225Z AUTO VRB02KT 9999 NCD 25/14 Q1021 BLU

METARs EXPIRÉS :
  • 181155Z AUTO VRB02KT 9999 NCD 24/14 Q1021 BLU
  • 181125Z AUTO 35003KT 9999 NCD 23/15 Q1021 BLU
  • 181055Z AUTO VRB02KT 9999 NCD 23/14 Q1022 BLU
  • 181025Z AUTO 27003KT 9999 NCD 22/14 Q1022 BLU
  • 180955Z AUTO 33003KT 9999 NCD 22/14 Q1022 BLU

TAF TAF EBCV
Valide du 18 à 13h jusqu'au 18 à 22h UTC


181141Z 1813/1822 VRB03KT 9999 BKN250
BECMG 1817/1819 23008KT BY EBWM



MET'MAP, la Météo Aéronautique d'un coup d'oeil ! - Copyright ORBIFLY Décembre 2007 - Disclaimer

ORBIFLY MET'MAP TEAM :

Programmation & Développement : Alexandra Zaïnal
Sur une idée originale de : Baudouin d'Aumeries
Soutien technique & logistique : Manuel Goepfert
Assistance : Marc-Olivier Méhu

Contact : metmap@orbifly.com




SOURCES & CREDITS :

   NOAA